Flight Track Log - Related Links

Times and Time Zones

All times are in EDT time to prevent confusion due to time zone crossing. See the MTN7305 flight status page for this flight to view local times or setup timezone preferences in your user account.

Time Position Orientation Groundspeed Altitude Reporting Facility
EDT Latitude Longitude Course Direction KTS MPH feet Rate Location/Type
Wed 11:05:11 PM 39.2000 -76.7000 303° West 107 123 1,000  Level Potomac TRACON
Wed 11:06:11 PM 39.2167 -76.7333 303° West 127 146 1,500 550 Climbing Potomac TRACON
Wed 11:07:11 PM 39.2500 -76.7333 360° North 138 159 2,100 600 Climbing Potomac TRACON
Wed 11:08:11 PM 39.3000 -76.7333 360° North 142 163 2,700 700 Climbing Potomac TRACON
Wed 11:09:11 PM 39.3333 -76.7333 360° North 134 154 3,500 700 Climbing Potomac TRACON
Wed 11:10:11 PM 39.3500 -76.7000 57° Northeast 142 163 4,100 600 Climbing Potomac TRACON
Wed 11:11:11 PM 39.3833 -76.6667 38° Northeast 145 167 4,700 450 Climbing Potomac TRACON
Wed 11:12:11 PM 39.4000 -76.6167 67° East 155 178 5,000 150 Climbing Potomac TRACON
Wed 11:13:11 PM 39.4333 -76.5667 49° Northeast 166 191 5,000  Level Potomac TRACON
Wed 11:14:05 PM 39.4500 -76.5333 57° Northeast 163 188 5,000  Level Potomac TRACON
Wed 11:15:11 PM 39.4833 -76.4833 49° Northeast 160 184 5,000  Level Potomac TRACON
Wed 11:16:05 PM 39.5000 -76.4333 67° East 168 193 5,000  Level Potomac TRACON
Wed 11:17:11 PM 39.5333 -76.3833 49° Northeast 178 205 5,000  Level Potomac TRACON
Wed 11:19:08 PM 39.6000 -76.2833 49° Northeast 182 209 5,000  Level Philadelphia TRACON
Wed 11:20:08 PM 39.6167 -76.2333 67° East 182 209 5,000  Level Philadelphia TRACON
Wed 11:21:08 PM 39.6500 -76.1667 57° Northeast 185 213 5,000  Level Philadelphia TRACON
Wed 11:22:08 PM 39.6833 -76.1167 49° Northeast 184 212 5,000  Level Philadelphia TRACON
Wed 11:23:08 PM 39.7000 -76.0667 67° East 183 211 5,000  Level Philadelphia TRACON
Wed 11:24:08 PM 39.7333 -76.0000 57° Northeast 183 211 5,000  Level Philadelphia TRACON
Wed 11:25:02 PM 39.7667 -75.9500 49° Northeast 183 211 5,000  Level Philadelphia TRACON
Wed 11:26:02 PM 39.7833 -75.9000 67° East 185 213 5,000  Level Philadelphia TRACON
Wed 11:27:02 PM 39.8167 -75.8333 57° Northeast 185 213 5,000  Level Philadelphia TRACON
Wed 11:28:02 PM 39.8333 -75.7833 67° East 185 213 5,000  Level Philadelphia TRACON
Wed 11:29:02 PM 39.8667 -75.7333 49° Northeast 185 213 5,000  Level Philadelphia TRACON
Wed 11:30:02 PM 39.9000 -75.6667 57° Northeast 183 211 5,000  Level Philadelphia TRACON
Wed 11:31:02 PM 39.9167 -75.6167 66° East 179 206 5,000  Level Philadelphia TRACON
Wed 11:32:02 PM 39.9500 -75.5667 49° Northeast 178 205 5,000  Level Philadelphia TRACON
Wed 11:33:08 PM 39.9833 -75.5000 57° Northeast 181 208 5,000  Level Philadelphia TRACON
Wed 11:34:08 PM 40.0000 -75.4500 66° East 177 204 5,000  Level Philadelphia TRACON
Wed 11:35:08 PM 40.0333 -75.3833 57° Northeast 178 205 5,000  Level Philadelphia TRACON
Wed 11:36:08 PM 40.0500 -75.3333 66° East 180 207 5,000  Level Philadelphia TRACON
Wed 11:37:14 PM 40.0833 -75.2667 57° Northeast 180 207 5,000  Level Philadelphia TRACON
Wed 11:38:14 PM 40.1167 -75.2167 49° Northeast 178 205 5,000  Level Philadelphia TRACON
Wed 11:39:15 PM 40.1333 -75.1667 66° East 177 204 5,000  Level Philadelphia TRACON
Wed 11:40:15 PM 40.1667 -75.1000 57° Northeast 177 204 5,000  Level Philadelphia TRACON
Wed 11:41:15 PM 40.1833 -75.0500 66° East 177 204 5,000  Level Philadelphia TRACON
Wed 11:42:15 PM 40.2167 -75.0000 49° Northeast 177 204 5,000  Level Philadelphia TRACON
Wed 11:43:21 PM 40.2333 -74.9333 72° East 176 203 5,000  Level Philadelphia TRACON
Wed 11:43:49 PM 40.2500 -74.9167 37° Northeast 176 203 5,000  Level New York TRACON
Wed 11:44:49 PM 40.2833 -74.8667 49° Northeast 173 199 5,000  Level New York TRACON
Wed 11:46:49 PM 40.3333 -74.7500 61° Northeast 178 205 5,000 -33 Level New York TRACON
Wed 11:47:49 PM 40.3500 -74.7000 66° East 182 209 4,900 -350 Descending New York TRACON
Wed 11:48:49 PM 40.3833 -74.6333 57° Northeast 189 217 4,300 -550 Descending New York TRACON
Wed 11:49:49 PM 40.4000 -74.5833 66° East 189 217 3,800 -450 Descending New York TRACON
Wed 11:50:49 PM 40.4167 -74.5167 72° East 190 219 3,400 -400 Descending New York TRACON
Wed 11:51:49 PM 40.4500 -74.4500 57° Northeast 185 213 3,000 -200 Descending New York TRACON
Wed 11:52:49 PM 40.4500 -74.4000 90° East 175 201 3,000  Level New York TRACON
Wed 11:53:49 PM 40.4500 -74.3333 90° East 175 201 3,000  Level New York TRACON
Wed 11:54:49 PM 40.4833 -74.3000 37° Northeast 173 199 3,000  Level New York TRACON
Wed 11:55:43 PM 40.5167 -74.2667 37° Northeast 168 193 3,000 -263 Level New York TRACON
Wed 11:56:43 PM 40.5667 -74.2500 14° North 170 196 2,500 -700 Descending New York TRACON
Wed 11:57:43 PM 40.6000 -74.2167 37° Northeast 169 194 1,600 -900 Descending New York TRACON
Wed 11:58:43 PM 40.6500 -74.2000 14° North 159 183 700 -900 Descending New York TRACON
Thu 12:00:00 AM 40.6833 -74.1667 23° Northeast  Level FlightAware Approximate
Thu 12:07:00 AM 40.6925 -74.1687 23° Northeast  Level Estimated
Thu 12:08:00 AM 40.6925 -74.1687 23° Northeast  Level Estimated

Login

Don't have an account? Register now (free) for customized features, flight alerts, and more!